sensor_id;sensor_type;location;lat;lon;timestamp;pressure;altitude;pressure_sealevel;temperature;humidity
72975;BME280;61166;54.228;37.632;2023-02-28T00:02:52;100021.91;;;-5.10;nan
72975;BME280;61166;54.228;37.632;2023-02-28T00:07:47;100014.31;;;-4.97;nan
72975;BME280;61166;54.228;37.632;2023-02-28T00:10:19;100008.44;;;-4.85;nan
72975;BME280;61166;54.228;37.632;2023-02-28T00:12:47;100000.38;;;-4.79;nan
72975;BME280;61166;54.228;37.632;2023-02-28T00:15:14;99996.34;;;-4.83;nan
72975;BME280;61166;54.228;37.632;2023-02-28T00:17:40;99987.19;;;-4.87;nan
72975;BME280;61166;54.228;37.632;2023-02-28T00:20:08;99980.59;;;-4.91;nan
72975;BME280;61166;54.228;37.632;2023-02-28T05:26:26;99702.91;;;5.11;nan
72975;BME280;61166;54.228;37.632;2023-02-28T05:28:53;99704.22;;;5.87;nan
72975;BME280;61166;54.228;37.632;2023-02-28T05:31:20;99705.97;;;6.11;nan
72975;BME280;61166;54.228;37.632;2023-02-28T05:33:46;99701.50;;;5.72;nan
72975;BME280;61166;54.228;37.632;2023-02-28T05:36:13;99690.13;;;6.66;nan
72975;BME280;61166;54.228;37.632;2023-02-28T05:38:40;99688.88;;;7.22;nan
72975;BME280;61166;54.228;37.632;2023-02-28T05:41:08;99688.94;;;7.14;nan
72975;BME280;61166;54.228;37.632;2023-02-28T05:43:36;99674.56;;;7.48;nan
72975;BME280;61166;54.228;37.632;2023-02-28T05:46:04;99662.69;;;8.11;nan
72975;BME280;61166;54.228;37.632;2023-02-28T05:48:35;99692.44;;;8.97;nan
72975;BME280;61166;54.228;37.632;2023-02-28T05:51:03;99658.97;;;8.99;nan
72975;BME280;61166;54.228;37.632;2023-02-28T05:53:30;99658.06;;;9.13;nan
72975;BME280;61166;54.228;37.632;2023-02-28T05:55:57;99649.13;;;9.35;nan
72975;BME280;61166;54.228;37.632;2023-02-28T05:58:23;99652.19;;;9.73;nan
72975;BME280;61166;54.228;37.632;2023-02-28T06:00:50;99656.69;;;9.79;nan
72975;BME280;61166;54.228;37.632;2023-02-28T06:03:17;99644.75;;;10.24;nan
72975;BME280;61166;54.228;37.632;2023-02-28T06:05:43;99639.44;;;10.18;nan
72975;BME280;61166;54.228;37.632;2023-02-28T06:08:10;99640.25;;;10.18;nan
72975;BME280;61166;54.228;37.632;2023-02-28T06:10:36;99632.44;;;10.32;nan
72975;BME280;61166;54.228;37.632;2023-02-28T06:13:04;99623.59;;;10.85;nan
72975;BME280;61166;54.228;37.632;2023-02-28T06:15:31;99635.34;;;10.89;nan
72975;BME280;61166;54.228;37.632;2023-02-28T06:17:58;99632.59;;;11.55;nan
72975;BME280;61166;54.228;37.632;2023-02-28T06:20:27;99627.78;;;12.73;nan
72975;BME280;61166;54.228;37.632;2023-02-28T06:22:53;99618.59;;;12.82;nan
72975;BME280;61166;54.228;37.632;2023-02-28T06:25:20;99611.38;;;13.21;nan
72975;BME280;61166;54.228;37.632;2023-02-28T06:27:47;99609.19;;;13.36;nan
72975;BME280;61166;54.228;37.632;2023-02-28T06:30:14;99604.94;;;13.17;nan
72975;BME280;61166;54.228;37.632;2023-02-28T06:32:40;99590.47;;;13.38;nan
72975;BME280;61166;54.228;37.632;2023-02-28T06:35:08;99587.09;;;13.49;nan
72975;BME280;61166;54.228;37.632;2023-02-28T06:37:35;99587.53;;;14.12;nan
72975;BME280;61166;54.228;37.632;2023-02-28T06:40:01;99576.16;;;13.82;nan
72975;BME280;61166;54.228;37.632;2023-02-28T06:42:28;99572.06;;;13.49;nan
72975;BME280;61166;54.228;37.632;2023-02-28T06:44:55;99582.34;;;13.21;nan
72975;BME280;61166;54.228;37.632;2023-02-28T06:47:22;99570.59;;;13.72;nan
72975;BME280;61166;54.228;37.632;2023-02-28T06:49:49;99587.34;;;14.26;nan
72975;BME280;61166;54.228;37.632;2023-02-28T06:52:16;99557.66;;;14.42;nan
72975;BME280;61166;54.228;37.632;2023-02-28T06:54:43;99560.00;;;14.32;nan
72975;BME280;61166;54.228;37.632;2023-02-28T06:57:09;99561.00;;;13.89;nan
72975;BME280;61166;54.228;37.632;2023-02-28T06:59:36;99551.09;;;14.14;nan
72975;BME280;61166;54.228;37.632;2023-02-28T07:02:02;99537.94;;;14.38;nan
72975;BME280;61166;54.228;37.632;2023-02-28T07:04:29;99534.56;;;13.41;nan
72975;BME280;61166;54.228;37.632;2023-02-28T07:06:56;99534.75;;;13.76;nan
72975;BME280;61166;54.228;37.632;2023-02-28T07:09:22;99527.47;;;13.23;nan
72975;BME280;61166;54.228;37.632;2023-02-28T07:11:49;99518.59;;;12.93;nan
72975;BME280;61166;54.228;37.632;2023-02-28T07:14:16;99517.56;;;13.18;nan
72975;BME280;61166;54.228;37.632;2023-02-28T07:16:42;99512.25;;;14.27;nan
72975;BME280;61166;54.228;37.632;2023-02-28T07:19:09;99504.47;;;14.55;nan
72975;BME280;61166;54.228;37.632;2023-02-28T07:21:35;99516.44;;;13.44;nan
72975;BME280;61166;54.228;37.632;2023-02-28T07:24:02;99509.13;;;13.76;nan
72975;BME280;61166;54.228;37.632;2023-02-28T07:26:29;99508.47;;;12.89;nan
72975;BME280;61166;54.228;37.632;2023-02-28T07:28:55;99501.94;;;12.49;nan
72975;BME280;61166;54.228;37.632;2023-02-28T07:31:22;99496.34;;;12.64;nan
72975;BME280;61166;54.228;37.632;2023-02-28T07:33:49;99488.81;;;12.67;nan
72975;BME280;61166;54.228;37.632;2023-02-28T07:36:17;99479.59;;;12.95;nan
72975;BME280;61166;54.228;37.632;2023-02-28T07:38:48;99481.06;;;13.09;nan
72975;BME280;61166;54.228;37.632;2023-02-28T07:41:19;99479.97;;;12.55;nan
72975;BME280;61166;54.228;37.632;2023-02-28T07:43:46;99471.22;;;12.61;nan
72975;BME280;61166;54.228;37.632;2023-02-28T07:46:15;99472.53;;;12.70;nan
72975;BME280;61166;54.228;37.632;2023-02-28T07:48:42;99464.16;;;12.30;nan
72975;BME280;61166;54.228;37.632;2023-02-28T07:51:09;99488.72;;;12.74;nan
72975;BME280;61166;54.228;37.632;2023-02-28T07:53:36;99455.53;;;13.03;nan
72975;BME280;61166;54.228;37.632;2023-02-28T07:56:03;99449.03;;;12.44;nan
72975;BME280;61166;54.228;37.632;2023-02-28T07:58:30;99445.50;;;12.93;nan
72975;BME280;61166;54.228;37.632;2023-02-28T08:01:05;99434.53;;;12.71;nan
72975;BME280;61166;54.228;37.632;2023-02-28T08:03:32;99441.91;;;12.69;nan
72975;BME280;61166;54.228;37.632;2023-02-28T08:06:00;99442.69;;;12.88;nan
72975;BME280;61166;54.228;37.632;2023-02-28T08:08:26;99432.66;;;12.97;nan
72975;BME280;61166;54.228;37.632;2023-02-28T08:10:53;99410.22;;;12.87;nan
72975;BME280;61166;54.228;37.632;2023-02-28T08:13:22;99418.56;;;12.23;nan
72975;BME280;61166;54.228;37.632;2023-02-28T08:15:49;99416.47;;;12.32;nan
72975;BME280;61166;54.228;37.632;2023-02-28T08:18:15;99414.63;;;12.57;nan
72975;BME280;61166;54.228;37.632;2023-02-28T08:20:42;99414.97;;;12.17;nan
72975;BME280;61166;54.228;37.632;2023-02-28T08:23:08;99406.91;;;12.55;nan
72975;BME280;61166;54.228;37.632;2023-02-28T08:25:35;99402.00;;;12.59;nan
72975;BME280;61166;54.228;37.632;2023-02-28T08:28:02;99398.66;;;11.77;nan
72975;BME280;61166;54.228;37.632;2023-02-28T08:30:28;99386.75;;;12.00;nan
72975;BME280;61166;54.228;37.632;2023-02-28T08:32:55;99379.09;;;10.90;nan
72975;BME280;61166;54.228;37.632;2023-02-28T08:35:23;99384.75;;;11.32;nan
72975;BME280;61166;54.228;37.632;2023-02-28T08:37:50;99375.56;;;11.73;nan
72975;BME280;61166;54.228;37.632;2023-02-28T08:40:16;99378.53;;;11.20;nan
72975;BME280;61166;54.228;37.632;2023-02-28T08:42:44;99364.13;;;10.84;nan
72975;BME280;61166;54.228;37.632;2023-02-28T08:45:12;99376.25;;;10.92;nan
72975;BME280;61166;54.228;37.632;2023-02-28T08:47:39;99365.84;;;11.04;nan
72975;BME280;61166;54.228;37.632;2023-02-28T08:50:06;99363.06;;;11.62;nan
72975;BME280;61166;54.228;37.632;2023-02-28T08:52:33;99364.53;;;11.89;nan
72975;BME280;61166;54.228;37.632;2023-02-28T08:55:00;99344.81;;;11.67;nan
72975;BME280;61166;54.228;37.632;2023-02-28T08:57:26;99347.97;;;11.82;nan
72975;BME280;61166;54.228;37.632;2023-02-28T08:59:53;99340.50;;;11.79;nan
72975;BME280;61166;54.228;37.632;2023-02-28T09:02:19;99314.81;;;11.05;nan
72975;BME280;61166;54.228;37.632;2023-02-28T09:04:46;99320.78;;;11.25;nan
72975;BME280;61166;54.228;37.632;2023-02-28T09:07:12;99307.66;;;11.50;nan
72975;BME280;61166;54.228;37.632;2023-02-28T09:09:39;99294.47;;;10.94;nan
72975;BME280;61166;54.228;37.632;2023-02-28T09:12:06;99288.00;;;10.45;nan
72975;BME280;61166;54.228;37.632;2023-02-28T09:14:33;99294.13;;;10.32;nan
72975;BME280;61166;54.228;37.632;2023-02-28T09:16:59;99309.09;;;10.18;nan
72975;BME280;61166;54.228;37.632;2023-02-28T09:19:26;99296.97;;;10.17;nan
72975;BME280;61166;54.228;37.632;2023-02-28T09:21:52;99282.44;;;9.95;nan
72975;BME280;61166;54.228;37.632;2023-02-28T09:24:19;99267.53;;;9.76;nan
72975;BME280;61166;54.228;37.632;2023-02-28T09:26:46;99269.94;;;9.31;nan
72975;BME280;61166;54.228;37.632;2023-02-28T09:29:30;99271.97;;;9.16;nan
